sensor_id;sensor_type;location;lat;lon;timestamp;P1;durP1;ratioP1;P2;durP2;ratioP2
72125;SDS011;59999;51.676;22.650;2022-09-09T00:01:17;15.83;;;6.20;;
72125;SDS011;59999;51.676;22.650;2022-09-09T00:04:09;13.63;;;6.05;;
72125;SDS011;59999;51.676;22.650;2022-09-09T00:06:50;13.88;;;5.68;;
72125;SDS011;59999;51.676;22.650;2022-09-09T00:09:40;14.07;;;5.78;;
72125;SDS011;59999;51.676;22.650;2022-09-09T00:12:19;15.43;;;6.03;;
72125;SDS011;59999;51.676;22.650;2022-09-09T00:15:11;15.83;;;6.93;;
72125;SDS011;59999;51.676;22.650;2022-09-09T00:20:13;14.32;;;5.80;;
72125;SDS011;59999;51.676;22.650;2022-09-09T00:22:51;14.15;;;6.15;;
72125;SDS011;59999;51.676;22.650;2022-09-09T00:25:28;12.50;;;5.15;;
72125;SDS011;59999;51.676;22.650;2022-09-09T00:27:59;13.70;;;5.37;;
72125;SDS011;59999;51.676;22.650;2022-09-09T00:30:26;14.70;;;5.75;;
72125;SDS011;59999;51.676;22.650;2022-09-09T00:33:05;12.18;;;4.97;;
72125;SDS011;59999;51.676;22.650;2022-09-09T00:35:38;14.10;;;5.35;;
72125;SDS011;59999;51.676;22.650;2022-09-09T00:38:13;12.95;;;5.82;;
72125;SDS011;59999;51.676;22.650;2022-09-09T00:40:50;12.47;;;5.60;;
72125;SDS011;59999;51.676;22.650;2022-09-09T00:45:56;14.38;;;6.18;;
72125;SDS011;59999;51.676;22.650;2022-09-09T00:48:50;13.18;;;5.65;;
72125;SDS011;59999;51.676;22.650;2022-09-09T00:57:12;14.95;;;5.95;;
72125;SDS011;59999;51.676;22.650;2022-09-09T01:02:21;14.02;;;6.03;;
72125;SDS011;59999;51.676;22.650;2022-09-09T01:04:50;13.07;;;5.40;;
72125;SDS011;59999;51.676;22.650;2022-09-09T01:07:17;12.00;;;4.93;;
72125;SDS011;59999;51.676;22.650;2022-09-09T01:12:41;13.38;;;6.05;;
72125;SDS011;59999;51.676;22.650;2022-09-09T01:15:27;13.50;;;6.10;;
72125;SDS011;59999;51.676;22.650;2022-09-09T01:18:06;11.37;;;5.83;;
72125;SDS011;59999;51.676;22.650;2022-09-09T01:20:43;12.55;;;5.65;;
72125;SDS011;59999;51.676;22.650;2022-09-09T01:23:16;15.32;;;6.28;;
72125;SDS011;59999;51.676;22.650;2022-09-09T01:28:44;13.07;;;6.05;;
72125;SDS011;59999;51.676;22.650;2022-09-09T01:31:14;12.67;;;6.00;;
72125;SDS011;59999;51.676;22.650;2022-09-09T01:33:43;12.85;;;6.00;;
72125;SDS011;59999;51.676;22.650;2022-09-09T01:36:15;11.80;;;6.43;;
72125;SDS011;59999;51.676;22.650;2022-09-09T01:38:48;13.82;;;6.60;;
72125;SDS011;59999;51.676;22.650;2022-09-09T01:41:14;13.93;;;6.72;;
72125;SDS011;59999;51.676;22.650;2022-09-09T01:43:40;14.83;;;7.07;;
72125;SDS011;59999;51.676;22.650;2022-09-09T01:46:06;15.18;;;7.28;;
72125;SDS011;59999;51.676;22.650;2022-09-09T01:48:33;14.07;;;6.93;;
72125;SDS011;59999;51.676;22.650;2022-09-09T01:50:59;14.82;;;7.60;;
72125;SDS011;59999;51.676;22.650;2022-09-09T01:53:25;15.90;;;7.87;;
72125;SDS011;59999;51.676;22.650;2022-09-09T01:56:02;16.40;;;7.70;;
72125;SDS011;59999;51.676;22.650;2022-09-09T02:01:21;17.33;;;8.13;;
72125;SDS011;59999;51.676;22.650;2022-09-09T02:03:52;15.33;;;8.23;;
72125;SDS011;59999;51.676;22.650;2022-09-09T02:06:34;19.92;;;8.73;;
72125;SDS011;59999;51.676;22.650;2022-09-09T02:09:04;15.80;;;7.45;;
72125;SDS011;59999;51.676;22.650;2022-09-09T02:11:31;17.45;;;8.60;;
72125;SDS011;59999;51.676;22.650;2022-09-09T02:17:10;19.47;;;8.57;;
72125;SDS011;59999;51.676;22.650;2022-09-09T02:19:42;16.70;;;8.32;;
72125;SDS011;59999;51.676;22.650;2022-09-09T02:22:15;19.40;;;8.60;;
72125;SDS011;59999;51.676;22.650;2022-09-09T02:24:44;18.60;;;8.85;;
72125;SDS011;59999;51.676;22.650;2022-09-09T02:27:11;17.60;;;8.98;;
72125;SDS011;59999;51.676;22.650;2022-09-09T02:29:40;19.70;;;10.00;;
72125;SDS011;59999;51.676;22.650;2022-09-09T02:32:11;18.77;;;9.93;;
72125;SDS011;59999;51.676;22.650;2022-09-09T02:34:42;18.85;;;9.32;;
72125;SDS011;59999;51.676;22.650;2022-09-09T02:37:10;19.08;;;8.30;;
72125;SDS011;59999;51.676;22.650;2022-09-09T02:39:38;17.80;;;9.02;;
72125;SDS011;59999;51.676;22.650;2022-09-09T02:42:04;16.47;;;7.13;;
72125;SDS011;59999;51.676;22.650;2022-09-09T02:44:31;18.23;;;9.07;;
72125;SDS011;59999;51.676;22.650;2022-09-09T02:47:41;15.65;;;7.35;;
72125;SDS011;59999;51.676;22.650;2022-09-09T02:55:37;19.15;;;9.32;;
72125;SDS011;59999;51.676;22.650;2022-09-09T02:58:06;20.35;;;9.40;;
72125;SDS011;59999;51.676;22.650;2022-09-09T03:00:37;19.30;;;9.50;;
72125;SDS011;59999;51.676;22.650;2022-09-09T03:03:05;19.58;;;9.60;;
72125;SDS011;59999;51.676;22.650;2022-09-09T03:05:32;20.47;;;9.20;;
72125;SDS011;59999;51.676;22.650;2022-09-09T03:07:58;20.35;;;9.70;;
72125;SDS011;59999;51.676;22.650;2022-09-09T03:10:24;21.65;;;9.75;;
72125;SDS011;59999;51.676;22.650;2022-09-09T03:12:50;22.25;;;10.68;;
72125;SDS011;59999;51.676;22.650;2022-09-09T03:15:16;21.47;;;9.60;;
72125;SDS011;59999;51.676;22.650;2022-09-09T03:17:42;21.15;;;8.65;;
72125;SDS011;59999;51.676;22.650;2022-09-09T03:20:08;19.23;;;9.73;;
72125;SDS011;59999;51.676;22.650;2022-09-09T03:22:34;22.38;;;10.02;;
72125;SDS011;59999;51.676;22.650;2022-09-09T03:25:00;21.13;;;9.68;;
72125;SDS011;59999;51.676;22.650;2022-09-09T03:27:28;19.03;;;9.60;;
72125;SDS011;59999;51.676;22.650;2022-09-09T03:29:55;20.70;;;9.70;;
72125;SDS011;59999;51.676;22.650;2022-09-09T03:32:21;21.38;;;10.32;;
72125;SDS011;59999;51.676;22.650;2022-09-09T03:34:48;21.80;;;8.98;;
72125;SDS011;59999;51.676;22.650;2022-09-09T03:37:15;18.13;;;9.60;;
72125;SDS011;59999;51.676;22.650;2022-09-09T03:39:43;18.23;;;9.63;;
72125;SDS011;59999;51.676;22.650;2022-09-09T03:42:09;17.35;;;9.07;;
72125;SDS011;59999;51.676;22.650;2022-09-09T03:44:40;20.13;;;9.55;;
72125;SDS011;59999;51.676;22.650;2022-09-09T03:47:07;20.83;;;9.93;;
72125;SDS011;59999;51.676;22.650;2022-09-09T03:49:33;19.27;;;9.65;;
72125;SDS011;59999;51.676;22.650;2022-09-09T03:51:59;21.90;;;10.20;;
72125;SDS011;59999;51.676;22.650;2022-09-09T03:54:26;22.58;;;10.23;;
72125;SDS011;59999;51.676;22.650;2022-09-09T03:56:52;21.55;;;9.80;;
72125;SDS011;59999;51.676;22.650;2022-09-09T03:59:19;21.40;;;10.70;;
72125;SDS011;59999;51.676;22.650;2022-09-09T04:01:46;19.95;;;10.32;;
72125;SDS011;59999;51.676;22.650;2022-09-09T04:04:12;19.13;;;10.10;;
72125;SDS011;59999;51.676;22.650;2022-09-09T04:06:39;18.80;;;10.10;;
72125;SDS011;59999;51.676;22.650;2022-09-09T04:09:04;20.67;;;10.05;;
72125;SDS011;59999;51.676;22.650;2022-09-09T04:11:30;20.75;;;10.63;;
72125;SDS011;59999;51.676;22.650;2022-09-09T04:13:57;25.30;;;11.90;;
72125;SDS011;59999;51.676;22.650;2022-09-09T04:16:22;24.92;;;11.30;;
72125;SDS011;59999;51.676;22.650;2022-09-09T04:18:48;22.63;;;10.13;;
72125;SDS011;59999;51.676;22.650;2022-09-09T04:21:15;21.03;;;11.00;;
72125;SDS011;59999;51.676;22.650;2022-09-09T04:23:41;19.75;;;10.20;;
72125;SDS011;59999;51.676;22.650;2022-09-09T04:26:07;21.83;;;10.80;;
72125;SDS011;59999;51.676;22.650;2022-09-09T04:28:34;20.85;;;10.82;;
72125;SDS011;59999;51.676;22.650;2022-09-09T04:31:08;19.77;;;10.93;;
72125;SDS011;59999;51.676;22.650;2022-09-09T04:33:37;21.83;;;11.02;;
72125;SDS011;59999;51.676;22.650;2022-09-09T04:36:04;21.95;;;11.40;;
72125;SDS011;59999;51.676;22.650;2022-09-09T04:38:30;21.83;;;11.15;;
72125;SDS011;59999;51.676;22.650;2022-09-09T04:40:56;21.02;;;10.65;;
72125;SDS011;59999;51.676;22.650;2022-09-09T04:43:22;24.80;;;11.53;;
72125;SDS011;59999;51.676;22.650;2022-09-09T04:45:51;20.88;;;11.05;;
72125;SDS011;59999;51.676;22.650;2022-09-09T04:48:18;21.27;;;10.60;;
72125;SDS011;59999;51.676;22.650;2022-09-09T04:50:53;19.15;;;10.57;;
72125;SDS011;59999;51.676;22.650;2022-09-09T04:53:20;22.88;;;11.63;;
72125;SDS011;59999;51.676;22.650;2022-09-09T04:55:47;22.03;;;11.20;;
72125;SDS011;59999;51.676;22.650;2022-09-09T04:58:14;22.55;;;10.90;;
72125;SDS011;59999;51.676;22.650;2022-09-09T05:00:40;22.20;;;11.15;;
72125;SDS011;59999;51.676;22.650;2022-09-09T05:03:07;20.48;;;10.38;;
72125;SDS011;59999;51.676;22.650;2022-09-09T05:05:34;22.70;;;11.55;;
72125;SDS011;59999;51.676;22.650;2022-09-09T05:08:01;22.50;;;11.40;;
72125;SDS011;59999;51.676;22.650;2022-09-09T05:10:31;22.33;;;11.30;;
72125;SDS011;59999;51.676;22.650;2022-09-09T05:12:58;22.15;;;11.68;;
72125;SDS011;59999;51.676;22.650;2022-09-09T05:15:25;22.85;;;11.13;;
72125;SDS011;59999;51.676;22.650;2022-09-09T05:17:51;21.03;;;11.47;;
72125;SDS011;59999;51.676;22.650;2022-09-09T05:20:19;24.15;;;12.80;;
72125;SDS011;59999;51.676;22.650;2022-09-09T05:22:46;24.20;;;12.13;;
72125;SDS011;59999;51.676;22.650;2022-09-09T05:25:12;24.55;;;12.63;;
72125;SDS011;59999;51.676;22.650;2022-09-09T05:27:39;25.43;;;13.13;;
72125;SDS011;59999;51.676;22.650;2022-09-09T05:30:05;30.17;;;12.98;;
72125;SDS011;59999;51.676;22.650;2022-09-09T05:32:31;26.05;;;12.90;;
72125;SDS011;59999;51.676;22.650;2022-09-09T05:35:00;23.38;;;11.98;;
72125;SDS011;59999;51.676;22.650;2022-09-09T05:37:27;26.27;;;12.70;;
72125;SDS011;59999;51.676;22.650;2022-09-09T05:39:53;25.33;;;12.83;;
72125;SDS011;59999;51.676;22.650;2022-09-09T05:42:19;23.15;;;12.30;;
72125;SDS011;59999;51.676;22.650;2022-09-09T05:44:45;25.08;;;12.55;;
72125;SDS011;59999;51.676;22.650;2022-09-09T05:47:11;25.07;;;12.60;;
72125;SDS011;59999;51.676;22.650;2022-09-09T05:49:37;21.38;;;11.65;;
72125;SDS011;59999;51.676;22.650;2022-09-09T05:52:03;24.27;;;12.15;;
72125;SDS011;59999;51.676;22.650;2022-09-09T05:54:29;23.60;;;11.73;;
72125;SDS011;59999;51.676;22.650;2022-09-09T05:56:55;23.67;;;12.32;;
72125;SDS011;59999;51.676;22.650;2022-09-09T05:59:21;23.10;;;11.97;;
72125;SDS011;59999;51.676;22.650;2022-09-09T06:01:48;22.67;;;11.38;;
72125;SDS011;59999;51.676;22.650;2022-09-09T06:04:14;25.92;;;12.60;;
72125;SDS011;59999;51.676;22.650;2022-09-09T06:06:40;20.88;;;11.93;;
72125;SDS011;59999;51.676;22.650;2022-09-09T06:09:08;22.23;;;12.03;;
72125;SDS011;59999;51.676;22.650;2022-09-09T06:11:39;25.08;;;12.00;;
72125;SDS011;59999;51.676;22.650;2022-09-09T06:14:05;22.67;;;11.82;;
72125;SDS011;59999;51.676;22.650;2022-09-09T06:16:32;24.52;;;12.32;;
72125;SDS011;59999;51.676;22.650;2022-09-09T06:18:59;22.95;;;12.02;;
72125;SDS011;59999;51.676;22.650;2022-09-09T06:21:28;23.87;;;11.30;;
72125;SDS011;59999;51.676;22.650;2022-09-09T06:23:56;21.85;;;11.90;;
72125;SDS011;59999;51.676;22.650;2022-09-09T06:26:23;21.73;;;11.20;;
72125;SDS011;59999;51.676;22.650;2022-09-09T06:28:51;23.05;;;12.32;;
72125;SDS011;59999;51.676;22.650;2022-09-09T06:31:21;22.98;;;12.05;;
72125;SDS011;59999;51.676;22.650;2022-09-09T06:33:49;22.53;;;12.43;;
72125;SDS011;59999;51.676;22.650;2022-09-09T06:36:20;23.30;;;11.75;;
72125;SDS011;59999;51.676;22.650;2022-09-09T06:38:48;21.95;;;12.27;;
72125;SDS011;59999;51.676;22.650;2022-09-09T06:41:15;22.73;;;11.48;;
72125;SDS011;59999;51.676;22.650;2022-09-09T06:43:44;22.20;;;12.18;;
72125;SDS011;59999;51.676;22.650;2022-09-09T06:46:20;25.37;;;11.33;;
72125;SDS011;59999;51.676;22.650;2022-09-09T06:48:48;20.73;;;10.98;;
72125;SDS011;59999;51.676;22.650;2022-09-09T06:51:18;24.40;;;11.70;;
72125;SDS011;59999;51.676;22.650;2022-09-09T06:53:50;21.17;;;10.90;;
72125;SDS011;59999;51.676;22.650;2022-09-09T06:56:22;21.07;;;10.90;;
72125;SDS011;59999;51.676;22.650;2022-09-09T06:58:53;20.50;;;10.85;;
72125;SDS011;59999;51.676;22.650;2022-09-09T07:01:22;23.83;;;11.43;;
72125;SDS011;59999;51.676;22.650;2022-09-09T07:03:53;23.08;;;11.48;;
72125;SDS011;59999;51.676;22.650;2022-09-09T07:06:21;23.20;;;10.27;;
72125;SDS011;59999;51.676;22.650;2022-09-09T07:08:52;22.43;;;11.57;;
72125;SDS011;59999;51.676;22.650;2022-09-09T07:11:21;22.20;;;11.10;;
72125;SDS011;59999;51.676;22.650;2022-09-09T07:13:48;21.58;;;10.82;;
72125;SDS011;59999;51.676;22.650;2022-09-09T07:16:16;20.58;;;10.60;;
72125;SDS011;59999;51.676;22.650;2022-09-09T07:18:43;20.13;;;10.90;;
72125;SDS011;59999;51.676;22.650;2022-09-09T07:21:10;19.47;;;10.83;;
72125;SDS011;59999;51.676;22.650;2022-09-09T07:23:38;21.95;;;10.93;;
72125;SDS011;59999;51.676;22.650;2022-09-09T07:26:09;20.50;;;10.95;;
72125;SDS011;59999;51.676;22.650;2022-09-09T07:28:37;22.70;;;10.90;;
72125;SDS011;59999;51.676;22.650;2022-09-09T07:31:03;22.27;;;10.93;;
72125;SDS011;59999;51.676;22.650;2022-09-09T07:33:31;22.43;;;11.13;;
72125;SDS011;59999;51.676;22.650;2022-09-09T07:36:06;19.83;;;11.05;;
72125;SDS011;59999;51.676;22.650;2022-09-09T07:38:40;21.65;;;10.75;;
72125;SDS011;59999;51.676;22.650;2022-09-09T07:41:09;23.00;;;11.48;;
72125;SDS011;59999;51.676;22.650;2022-09-09T07:43:40;20.05;;;10.43;;
72125;SDS011;59999;51.676;22.650;2022-09-09T07:46:09;22.50;;;10.90;;
72125;SDS011;59999;51.676;22.650;2022-09-09T07:48:37;19.02;;;10.90;;
72125;SDS011;59999;51.676;22.650;2022-09-09T07:51:09;20.13;;;10.80;;
72125;SDS011;59999;51.676;22.650;2022-09-09T07:53:38;20.17;;;10.57;;
72125;SDS011;59999;51.676;22.650;2022-09-09T07:56:06;18.92;;;10.50;;
72125;SDS011;59999;51.676;22.650;2022-09-09T07:58:35;18.87;;;11.03;;
72125;SDS011;59999;51.676;22.650;2022-09-09T08:01:07;19.70;;;10.98;;
72125;SDS011;59999;51.676;22.650;2022-09-09T08:03:44;20.30;;;11.02;;
72125;SDS011;59999;51.676;22.650;2022-09-09T08:06:10;19.30;;;10.93;;
72125;SDS011;59999;51.676;22.650;2022-09-09T08:08:37;20.20;;;11.10;;
72125;SDS011;59999;51.676;22.650;2022-09-09T08:11:08;19.47;;;10.67;;
72125;SDS011;59999;51.676;22.650;2022-09-09T08:13:41;19.35;;;10.73;;
72125;SDS011;59999;51.676;22.650;2022-09-09T08:16:15;19.58;;;11.27;;
72125;SDS011;59999;51.676;22.650;2022-09-09T08:18:42;18.52;;;10.80;;
72125;SDS011;59999;51.676;22.650;2022-09-09T08:21:13;20.33;;;10.68;;
72125;SDS011;59999;51.676;22.650;2022-09-09T08:23:41;17.67;;;10.30;;
72125;SDS011;59999;51.676;22.650;2022-09-09T08:26:15;20.60;;;11.23;;
72125;SDS011;59999;51.676;22.650;2022-09-09T08:28:43;20.65;;;10.85;;
72125;SDS011;59999;51.676;22.650;2022-09-09T08:31:10;20.65;;;11.40;;
72125;SDS011;59999;51.676;22.650;2022-09-09T08:33:39;20.17;;;10.07;;
72125;SDS011;59999;51.676;22.650;2022-09-09T08:36:08;18.97;;;10.93;;
72125;SDS011;59999;51.676;22.650;2022-09-09T08:38:35;20.27;;;11.15;;
72125;SDS011;59999;51.676;22.650;2022-09-09T08:41:09;21.60;;;11.23;;
72125;SDS011;59999;51.676;22.650;2022-09-09T08:43:58;19.88;;;10.52;;
72125;SDS011;59999;51.676;22.650;2022-09-09T08:52:18;19.98;;;11.18;;
72125;SDS011;59999;51.676;22.650;2022-09-09T08:54:48;19.55;;;10.70;;
72125;SDS011;59999;51.676;22.650;2022-09-09T08:57:25;21.38;;;11.43;;
72125;SDS011;59999;51.676;22.650;2022-09-09T08:59:53;21.17;;;10.98;;
72125;SDS011;59999;51.676;22.650;2022-09-09T09:02:25;20.40;;;10.93;;
72125;SDS011;59999;51.676;22.650;2022-09-09T09:10:19;19.80;;;10.63;;
72125;SDS011;59999;51.676;22.650;2022-09-09T09:12:56;18.60;;;10.73;;
72125;SDS011;59999;51.676;22.650;2022-09-09T09:15:25;17.90;;;10.60;;
72125;SDS011;59999;51.676;22.650;2022-09-09T09:17:53;19.77;;;10.27;;
72125;SDS011;59999;51.676;22.650;2022-09-09T09:20:21;16.42;;;9.27;;
72125;SDS011;59999;51.676;22.650;2022-09-09T09:22:55;19.48;;;10.30;;
72125;SDS011;59999;51.676;22.650;2022-09-09T09:25:27;18.87;;;10.53;;
72125;SDS011;59999;51.676;22.650;2022-09-09T09:28:15;17.27;;;9.80;;
72125;SDS011;59999;51.676;22.650;2022-09-09T09:30:48;19.90;;;10.23;;
72125;SDS011;59999;51.676;22.650;2022-09-09T09:35:45;18.03;;;10.50;;
72125;SDS011;59999;51.676;22.650;2022-09-09T09:38:18;18.02;;;10.25;;
72125;SDS011;59999;51.676;22.650;2022-09-09T09:40:48;18.50;;;9.80;;
72125;SDS011;59999;51.676;22.650;2022-09-09T09:43:18;17.38;;;9.73;;
72125;SDS011;59999;51.676;22.650;2022-09-09T09:45:47;22.30;;;10.40;;
72125;SDS011;59999;51.676;22.650;2022-09-09T09:48:14;17.52;;;9.80;;
72125;SDS011;59999;51.676;22.650;2022-09-09T09:50:47;18.77;;;9.90;;
72125;SDS011;59999;51.676;22.650;2022-09-09T09:53:21;18.02;;;9.88;;
72125;SDS011;59999;51.676;22.650;2022-09-09T09:55:56;17.00;;;9.35;;
72125;SDS011;59999;51.676;22.650;2022-09-09T09:58:23;16.80;;;9.30;;
72125;SDS011;59999;51.676;22.650;2022-09-09T10:00:52;18.88;;;10.18;;
72125;SDS011;59999;51.676;22.650;2022-09-09T10:03:32;16.33;;;9.13;;
72125;SDS011;59999;51.676;22.650;2022-09-09T10:06:03;17.95;;;9.15;;
72125;SDS011;59999;51.676;22.650;2022-09-09T10:08:29;15.77;;;9.38;;
72125;SDS011;59999;51.676;22.650;2022-09-09T10:11:22;16.63;;;9.23;;
72125;SDS011;59999;51.676;22.650;2022-09-09T10:14:30;16.17;;;9.10;;
72125;SDS011;59999;51.676;22.650;2022-09-09T10:19:46;16.63;;;9.07;;
72125;SDS011;59999;51.676;22.650;2022-09-09T10:22:27;16.30;;;9.20;;
72125;SDS011;59999;51.676;22.650;2022-09-09T10:30:57;15.85;;;8.75;;
72125;SDS011;59999;51.676;22.650;2022-09-09T10:36:21;16.15;;;8.73;;
72125;SDS011;59999;51.676;22.650;2022-09-09T10:39:00;15.90;;;8.30;;
72125;SDS011;59999;51.676;22.650;2022-09-09T10:47:29;13.70;;;8.35;;
72125;SDS011;59999;51.676;22.650;2022-09-09T10:50:24;15.82;;;8.98;;
72125;SDS011;59999;51.676;22.650;2022-09-09T10:53:13;16.57;;;7.70;;
72125;SDS011;59999;51.676;22.650;2022-09-09T10:55:52;14.45;;;8.35;;
72125;SDS011;59999;51.676;22.650;2022-09-09T10:58:23;15.13;;;8.85;;
72125;SDS011;59999;51.676;22.650;2022-09-09T11:01:14;15.50;;;8.30;;
72125;SDS011;59999;51.676;22.650;2022-09-09T11:03:44;13.55;;;8.02;;
72125;SDS011;59999;51.676;22.650;2022-09-09T11:06:21;15.13;;;7.93;;
72125;SDS011;59999;51.676;22.650;2022-09-09T11:08:53;13.45;;;7.30;;
72125;SDS011;59999;51.676;22.650;2022-09-09T11:11:21;11.82;;;7.07;;
72125;SDS011;59999;51.676;22.650;2022-09-09T11:14:08;14.13;;;7.55;;
72125;SDS011;59999;51.676;22.650;2022-09-09T11:16:53;12.60;;;7.80;;
72125;SDS011;59999;51.676;22.650;2022-09-09T11:19:44;11.73;;;6.77;;
72125;SDS011;59999;51.676;22.650;2022-09-09T11:22:18;12.73;;;7.80;;
72125;SDS011;59999;51.676;22.650;2022-09-09T11:25:02;12.27;;;6.80;;
72125;SDS011;59999;51.676;22.650;2022-09-09T11:27:32;12.05;;;7.07;;
72125;SDS011;59999;51.676;22.650;2022-09-09T11:38:34;12.38;;;7.35;;
72125;SDS011;59999;51.676;22.650;2022-09-09T11:41:12;11.82;;;7.22;;
72125;SDS011;59999;51.676;22.650;2022-09-09T11:43:44;11.38;;;6.70;;
72125;SDS011;59999;51.676;22.650;2022-09-09T11:46:12;12.23;;;6.30;;
72125;SDS011;59999;51.676;22.650;2022-09-09T11:48:41;11.65;;;6.75;;
72125;SDS011;59999;51.676;22.650;2022-09-09T11:51:13;12.57;;;7.05;;
72125;SDS011;59999;51.676;22.650;2022-09-09T11:53:49;13.50;;;7.63;;
72125;SDS011;59999;51.676;22.650;2022-09-09T11:56:50;12.68;;;7.40;;
72125;SDS011;59999;51.676;22.650;2022-09-09T11:59:32;12.70;;;7.10;;
72125;SDS011;59999;51.676;22.650;2022-09-09T12:02:03;12.77;;;6.82;;
72125;SDS011;59999;51.676;22.650;2022-09-09T12:07:38;13.38;;;6.68;;
72125;SDS011;59999;51.676;22.650;2022-09-09T12:12:45;12.40;;;6.47;;
72125;SDS011;59999;51.676;22.650;2022-09-09T12:17:44;12.10;;;7.65;;
72125;SDS011;59999;51.676;22.650;2022-09-09T12:20:19;13.25;;;6.78;;
72125;SDS011;59999;51.676;22.650;2022-09-09T12:23:08;11.55;;;6.53;;
72125;SDS011;59999;51.676;22.650;2022-09-09T12:31:15;12.18;;;6.68;;
72125;SDS011;59999;51.676;22.650;2022-09-09T12:34:02;15.07;;;6.95;;
72125;SDS011;59999;51.676;22.650;2022-09-09T12:36:35;11.10;;;6.15;;
72125;SDS011;59999;51.676;22.650;2022-09-09T12:39:15;11.37;;;6.50;;
72125;SDS011;59999;51.676;22.650;2022-09-09T12:41:52;10.93;;;5.90;;
72125;SDS011;59999;51.676;22.650;2022-09-09T12:44:25;11.18;;;6.07;;
72125;SDS011;59999;51.676;22.650;2022-09-09T12:46:53;12.30;;;5.93;;
72125;SDS011;59999;51.676;22.650;2022-09-09T12:49:24;11.25;;;6.13;;
72125;SDS011;59999;51.676;22.650;2022-09-09T12:51:53;11.60;;;6.57;;
72125;SDS011;59999;51.676;22.650;2022-09-09T12:54:20;13.23;;;6.90;;
72125;SDS011;59999;51.676;22.650;2022-09-09T12:56:46;11.90;;;6.45;;
72125;SDS011;59999;51.676;22.650;2022-09-09T12:59:21;12.10;;;6.43;;
72125;SDS011;59999;51.676;22.650;2022-09-09T13:01:57;15.55;;;6.38;;
72125;SDS011;59999;51.676;22.650;2022-09-09T13:04:23;10.53;;;5.83;;
72125;SDS011;59999;51.676;22.650;2022-09-09T13:06:49;9.60;;;5.65;;
72125;SDS011;59999;51.676;22.650;2022-09-09T13:09:17;10.30;;;5.82;;
72125;SDS011;59999;51.676;22.650;2022-09-09T13:11:54;11.30;;;6.13;;
72125;SDS011;59999;51.676;22.650;2022-09-09T13:14:30;9.73;;;5.30;;
72125;SDS011;59999;51.676;22.650;2022-09-09T13:17:01;11.73;;;5.90;;
72125;SDS011;59999;51.676;22.650;2022-09-09T13:19:35;10.13;;;5.60;;
72125;SDS011;59999;51.676;22.650;2022-09-09T13:22:14;10.90;;;5.35;;
72125;SDS011;59999;51.676;22.650;2022-09-09T13:24:46;10.38;;;5.70;;
72125;SDS011;59999;51.676;22.650;2022-09-09T13:30:20;9.68;;;5.30;;
72125;SDS011;59999;51.676;22.650;2022-09-09T13:35:59;11.68;;;6.07;;
72125;SDS011;59999;51.676;22.650;2022-09-09T13:38:37;13.70;;;5.97;;
72125;SDS011;59999;51.676;22.650;2022-09-09T13:41:07;11.23;;;5.97;;
72125;SDS011;59999;51.676;22.650;2022-09-09T13:43:36;12.07;;;5.85;;
72125;SDS011;59999;51.676;22.650;2022-09-09T13:46:24;10.18;;;5.82;;
72125;SDS011;59999;51.676;22.650;2022-09-09T13:48:57;10.15;;;5.57;;
72125;SDS011;59999;51.676;22.650;2022-09-09T13:51:46;12.23;;;6.07;;
72125;SDS011;59999;51.676;22.650;2022-09-09T13:54:17;11.77;;;6.27;;
72125;SDS011;59999;51.676;22.650;2022-09-09T13:56:44;10.93;;;6.10;;
72125;SDS011;59999;51.676;22.650;2022-09-09T13:59:15;20.00;;;9.02;;
72125;SDS011;59999;51.676;22.650;2022-09-09T14:01:47;17.92;;;9.13;;
72125;SDS011;59999;51.676;22.650;2022-09-09T14:04:14;15.13;;;8.48;;
72125;SDS011;59999;51.676;22.650;2022-09-09T14:06:41;13.47;;;7.63;;
72125;SDS011;59999;51.676;22.650;2022-09-09T14:09:12;13.55;;;7.32;;
72125;SDS011;59999;51.676;22.650;2022-09-09T14:11:40;16.40;;;7.53;;
72125;SDS011;59999;51.676;22.650;2022-09-09T14:14:06;15.93;;;7.75;;
72125;SDS011;59999;51.676;22.650;2022-09-09T14:16:33;19.10;;;9.15;;
72125;SDS011;59999;51.676;22.650;2022-09-09T14:18:59;19.43;;;9.47;;
72125;SDS011;59999;51.676;22.650;2022-09-09T14:21:25;14.98;;;8.32;;
72125;SDS011;59999;51.676;22.650;2022-09-09T14:23:52;14.88;;;7.80;;
72125;SDS011;59999;51.676;22.650;2022-09-09T14:26:18;16.15;;;7.75;;
72125;SDS011;59999;51.676;22.650;2022-09-09T14:28:46;16.08;;;7.65;;
72125;SDS011;59999;51.676;22.650;2022-09-09T14:31:13;12.53;;;6.63;;
72125;SDS011;59999;51.676;22.650;2022-09-09T14:33:39;13.05;;;7.25;;
72125;SDS011;59999;51.676;22.650;2022-09-09T14:36:06;12.80;;;7.10;;
72125;SDS011;59999;51.676;22.650;2022-09-09T14:38:34;11.50;;;6.85;;
72125;SDS011;59999;51.676;22.650;2022-09-09T14:41:05;15.57;;;8.23;;
72125;SDS011;59999;51.676;22.650;2022-09-09T14:43:32;14.77;;;7.50;;
72125;SDS011;59999;51.676;22.650;2022-09-09T14:46:05;12.13;;;6.70;;
72125;SDS011;59999;51.676;22.650;2022-09-09T14:48:32;13.75;;;6.15;;
72125;SDS011;59999;51.676;22.650;2022-09-09T14:51:06;10.57;;;6.35;;
72125;SDS011;59999;51.676;22.650;2022-09-09T14:53:41;10.35;;;5.90;;
72125;SDS011;59999;51.676;22.650;2022-09-09T14:56:10;10.80;;;6.00;;
72125;SDS011;59999;51.676;22.650;2022-09-09T14:58:40;12.27;;;6.80;;
72125;SDS011;59999;51.676;22.650;2022-09-09T15:01:10;12.45;;;6.82;;
72125;SDS011;59999;51.676;22.650;2022-09-09T15:03:38;12.18;;;6.18;;
72125;SDS011;59999;51.676;22.650;2022-09-09T15:06:10;10.60;;;6.30;;
72125;SDS011;59999;51.676;22.650;2022-09-09T15:08:38;10.20;;;6.40;;
72125;SDS011;59999;51.676;22.650;2022-09-09T15:11:06;11.52;;;6.55;;
72125;SDS011;59999;51.676;22.650;2022-09-09T15:13:36;10.50;;;6.05;;
72125;SDS011;59999;51.676;22.650;2022-09-09T15:16:07;11.15;;;6.50;;
72125;SDS011;59999;51.676;22.650;2022-09-09T15:18:41;12.27;;;6.70;;
72125;SDS011;59999;51.676;22.650;2022-09-09T15:21:15;12.23;;;6.53;;
72125;SDS011;59999;51.676;22.650;2022-09-09T15:23:44;11.07;;;6.45;;
72125;SDS011;59999;51.676;22.650;2022-09-09T15:26:10;12.55;;;7.10;;
72125;SDS011;59999;51.676;22.650;2022-09-09T15:28:39;12.55;;;6.95;;
72125;SDS011;59999;51.676;22.650;2022-09-09T15:31:27;11.43;;;6.23;;
72125;SDS011;59999;51.676;22.650;2022-09-09T15:33:56;11.73;;;6.65;;
72125;SDS011;59999;51.676;22.650;2022-09-09T15:36:31;11.65;;;6.63;;
72125;SDS011;59999;51.676;22.650;2022-09-09T15:38:59;12.55;;;6.28;;
72125;SDS011;59999;51.676;22.650;2022-09-09T15:41:25;13.73;;;6.75;;
72125;SDS011;59999;51.676;22.650;2022-09-09T15:43:52;14.93;;;7.13;;
72125;SDS011;59999;51.676;22.650;2022-09-09T15:46:29;12.23;;;6.47;;
72125;SDS011;59999;51.676;22.650;2022-09-09T15:48:58;13.18;;;6.97;;
72125;SDS011;59999;51.676;22.650;2022-09-09T15:51:31;14.13;;;7.45;;
72125;SDS011;59999;51.676;22.650;2022-09-09T15:53:58;13.65;;;7.03;;
72125;SDS011;59999;51.676;22.650;2022-09-09T15:56:26;13.77;;;7.07;;
72125;SDS011;59999;51.676;22.650;2022-09-09T15:58:53;13.27;;;7.10;;
72125;SDS011;59999;51.676;22.650;2022-09-09T16:01:20;12.80;;;7.20;;
72125;SDS011;59999;51.676;22.650;2022-09-09T16:03:46;13.38;;;7.68;;
72125;SDS011;59999;51.676;22.650;2022-09-09T16:06:13;13.60;;;7.35;;
72125;SDS011;59999;51.676;22.650;2022-09-09T16:08:41;12.37;;;7.30;;